sensor_id;sensor_type;location;lat;lon;timestamp;temperature;humidity
37032;DHT22;22940;52.266;10.536;2023-03-04T08:26:44;6.10;99.90
37032;DHT22;22940;52.266;10.536;2023-03-04T08:29:11;5.90;99.90
37032;DHT22;22940;52.266;10.536;2023-03-04T08:31:37;5.70;99.90
37032;DHT22;22940;52.266;10.536;2023-03-04T08:34:04;5.70;99.90
37032;DHT22;22940;52.266;10.536;2023-03-04T08:36:30;5.60;99.90
37032;DHT22;22940;52.266;10.536;2023-03-04T08:38:56;5.70;99.90
37032;DHT22;22940;52.266;10.536;2023-03-04T08:41:21;5.80;99.90
37032;DHT22;22940;52.266;10.536;2023-03-04T08:43:47;5.80;99.90
37032;DHT22;22940;52.266;10.536;2023-03-04T08:46:12;5.50;99.90
37032;DHT22;22940;52.266;10.536;2023-03-04T08:48:38;5.70;99.90
37032;DHT22;22940;52.266;10.536;2023-03-04T08:51:11;5.80;99.90
37032;DHT22;22940;52.266;10.536;2023-03-04T08:56:03;5.80;99.90
37032;DHT22;22940;52.266;10.536;2023-03-04T08:58:29;6.00;99.90
37032;DHT22;22940;52.266;10.536;2023-03-04T09:00:55;5.90;99.90
37032;DHT22;22940;52.266;10.536;2023-03-04T09:03:20;6.10;99.90
37032;DHT22;22940;52.266;10.536;2023-03-04T09:05:47;6.40;99.90
37032;DHT22;22940;52.266;10.536;2023-03-04T09:08:13;6.40;99.90
37032;DHT22;22940;52.266;10.536;2023-03-04T09:10:38;6.30;99.90
37032;DHT22;22940;52.266;10.536;2023-03-04T09:13:04;6.20;99.90
37032;DHT22;22940;52.266;10.536;2023-03-04T09:15:31;6.40;99.90
37032;DHT22;22940;52.266;10.536;2023-03-04T09:18:00;5.90;99.90
37032;DHT22;22940;52.266;10.536;2023-03-04T09:20:26;5.80;99.90
37032;DHT22;22940;52.266;10.536;2023-03-04T09:22:51;6.20;99.90
37032;DHT22;22940;52.266;10.536;2023-03-04T09:25:17;6.30;99.90
37032;DHT22;22940;52.266;10.536;2023-03-04T09:27:42;6.40;99.90
37032;DHT22;22940;52.266;10.536;2023-03-04T09:30:08;6.40;99.90
37032;DHT22;22940;52.266;10.536;2023-03-04T09:32:34;6.40;99.90
37032;DHT22;22940;52.266;10.536;2023-03-04T09:35:00;6.50;99.90
37032;DHT22;22940;52.266;10.536;2023-03-04T09:37:25;6.50;99.90
37032;DHT22;22940;52.266;10.536;2023-03-04T09:39:51;5.90;99.90
37032;DHT22;22940;52.266;10.536;2023-03-04T09:45:00;7.10;99.90
37032;DHT22;22940;52.266;10.536;2023-03-04T09:47:27;6.20;99.90
37032;DHT22;22940;52.266;10.536;2023-03-04T09:49:55;6.30;99.90
37032;DHT22;22940;52.266;10.536;2023-03-04T10:05:03;6.40;99.90
37032;DHT22;22940;52.266;10.536;2023-03-04T10:07:32;6.50;99.90
37032;DHT22;22940;52.266;10.536;2023-03-04T10:10:00;6.30;99.90
37032;DHT22;22940;52.266;10.536;2023-03-04T10:12:27;6.30;99.90
37032;DHT22;22940;52.266;10.536;2023-03-04T10:14:58;6.20;99.90
37032;DHT22;22940;52.266;10.536;2023-03-04T10:17:34;5.90;99.90
37032;DHT22;22940;52.266;10.536;2023-03-04T10:22:47;6.30;99.90
37032;DHT22;22940;52.266;10.536;2023-03-04T10:27:42;6.50;99.90
37032;DHT22;22940;52.266;10.536;2023-03-04T10:37:48;6.50;99.90
37032;DHT22;22940;52.266;10.536;2023-03-04T10:40:18;6.60;99.90
37032;DHT22;22940;52.266;10.536;2023-03-04T10:45:18;6.40;99.90
37032;DHT22;22940;52.266;10.536;2023-03-04T10:47:47;6.40;99.90
37032;DHT22;22940;52.266;10.536;2023-03-04T10:50:20;6.40;99.90
37032;DHT22;22940;52.266;10.536;2023-03-04T10:52:46;6.50;99.90
37032;DHT22;22940;52.266;10.536;2023-03-04T10:57:43;6.10;99.90
37032;DHT22;22940;52.266;10.536;2023-03-04T11:02:40;6.60;99.90
37032;DHT22;22940;52.266;10.536;2023-03-04T11:07:35;6.50;99.90
37032;DHT22;22940;52.266;10.536;2023-03-04T11:10:09;6.90;99.90
37032;DHT22;22940;52.266;10.536;2023-03-04T11:15:01;6.70;99.90
37032;DHT22;22940;52.266;10.536;2023-03-04T11:19:54;7.00;99.90
37032;DHT22;22940;52.266;10.536;2023-03-04T11:22:21;7.20;99.90
37032;DHT22;22940;52.266;10.536;2023-03-04T11:24:53;7.00;99.90
37032;DHT22;22940;52.266;10.536;2023-03-04T11:27:20;7.20;99.90
37032;DHT22;22940;52.266;10.536;2023-03-04T11:29:51;6.70;99.90
37032;DHT22;22940;52.266;10.536;2023-03-04T11:34:49;6.90;99.90
37032;DHT22;22940;52.266;10.536;2023-03-04T11:37:36;6.70;99.90
37032;DHT22;22940;52.266;10.536;2023-03-04T11:40:07;6.70;99.90
37032;DHT22;22940;52.266;10.536;2023-03-04T11:45:03;6.80;99.90
37032;DHT22;22940;52.266;10.536;2023-03-04T11:50:26;6.80;99.90
37032;DHT22;22940;52.266;10.536;2023-03-04T11:52:59;6.60;99.90
37032;DHT22;22940;52.266;10.536;2023-03-04T11:58:22;7.00;99.90
37032;DHT22;22940;52.266;10.536;2023-03-04T12:00:59;7.30;99.90
37032;DHT22;22940;52.266;10.536;2023-03-04T12:03:41;6.90;99.90
37032;DHT22;22940;52.266;10.536;2023-03-04T12:17:42;8.80;93.80
37032;DHT22;22940;52.266;10.536;2023-03-04T12:27:16;7.80;80.70
37032;DHT22;22940;52.266;10.536;2023-03-04T12:32:30;7.30;90.40
37032;DHT22;22940;52.266;10.536;2023-03-04T12:37:52;7.60;90.60
37032;DHT22;22940;52.266;10.536;2023-03-04T12:46:03;7.50;75.50
37032;DHT22;22940;52.266;10.536;2023-03-04T12:50:30;7.50;79.30
37032;DHT22;22940;52.266;10.536;2023-03-04T12:55:35;7.40;60.10
37032;DHT22;22940;52.266;10.536;2023-03-04T12:58:01;7.30;47.30
37032;DHT22;22940;52.266;10.536;2023-03-04T13:00:31;7.20;50.30
37032;DHT22;22940;52.266;10.536;2023-03-04T13:05:30;7.00;44.00
37032;DHT22;22940;52.266;10.536;2023-03-04T13:10:28;7.00;28.30
37032;DHT22;22940;52.266;10.536;2023-03-04T13:12:57;7.00;30.30
37032;DHT22;22940;52.266;10.536;2023-03-04T13:17:53;7.30;23.80
37032;DHT22;22940;52.266;10.536;2023-03-04T13:22:46;7.50;8.80
37032;DHT22;22940;52.266;10.536;2023-03-04T13:25:30;7.60;8.40
37032;DHT22;22940;52.266;10.536;2023-03-04T13:32:56;7.70;3.10
37032;DHT22;22940;52.266;10.536;2023-03-04T13:49:01;7.50;16.80
37032;DHT22;22940;52.266;10.536;2023-03-04T14:01:28;7.00;46.70
37032;DHT22;22940;52.266;10.536;2023-03-04T14:03:54;6.60;90.00
37032;DHT22;22940;52.266;10.536;2023-03-04T14:06:21;6.40;99.90
37032;DHT22;22940;52.266;10.536;2023-03-04T14:08:48;6.30;99.90
37032;DHT22;22940;52.266;10.536;2023-03-04T14:11:33;6.20;99.90
37032;DHT22;22940;52.266;10.536;2023-03-04T14:13:59;6.20;99.90
37032;DHT22;22940;52.266;10.536;2023-03-04T14:16:28;6.40;99.90
37032;DHT22;22940;52.266;10.536;2023-03-04T14:18:57;6.40;95.60
37032;DHT22;22940;52.266;10.536;2023-03-04T14:21:23;6.30;96.90
37032;DHT22;22940;52.266;10.536;2023-03-04T14:23:58;6.50;99.20
37032;DHT22;22940;52.266;10.536;2023-03-04T14:26:24;6.60;95.90
37032;DHT22;22940;52.266;10.536;2023-03-04T14:28:52;6.70;78.50
37032;DHT22;22940;52.266;10.536;2023-03-04T14:31:22;6.60;81.00
37032;DHT22;22940;52.266;10.536;2023-03-04T14:33:51;6.70;78.40
37032;DHT22;22940;52.266;10.536;2023-03-04T14:36:19;6.60;68.30
37032;DHT22;22940;52.266;10.536;2023-03-04T14:38:50;6.20;57.90
37032;DHT22;22940;52.266;10.536;2023-03-04T14:41:17;6.40;50.60
37032;DHT22;22940;52.266;10.536;2023-03-04T14:46:14;6.30;66.30
37032;DHT22;22940;52.266;10.536;2023-03-04T14:48:52;6.30;66.80
37032;DHT22;22940;52.266;10.536;2023-03-04T14:56:50;6.20;48.70
37032;DHT22;22940;52.266;10.536;2023-03-04T14:59:15;6.10;46.70
37032;DHT22;22940;52.266;10.536;2023-03-04T15:01:41;6.10;48.20
37032;DHT22;22940;52.266;10.536;2023-03-04T15:04:07;6.10;50.30
37032;DHT22;22940;52.266;10.536;2023-03-04T15:06:35;6.20;49.60
37032;DHT22;22940;52.266;10.536;2023-03-04T15:09:02;6.10;48.20
37032;DHT22;22940;52.266;10.536;2023-03-04T15:11:32;6.20;53.70
37032;DHT22;22940;52.266;10.536;2023-03-04T15:16:53;6.20;53.20
37032;DHT22;22940;52.266;10.536;2023-03-04T15:19:24;6.30;48.50
37032;DHT22;22940;52.266;10.536;2023-03-04T15:21:50;6.30;48.40
37032;DHT22;22940;52.266;10.536;2023-03-04T15:24:16;6.30;53.50
37032;DHT22;22940;52.266;10.536;2023-03-04T15:26:42;6.30;47.10
37032;DHT22;22940;52.266;10.536;2023-03-04T15:29:13;6.30;46.60
37032;DHT22;22940;52.266;10.536;2023-03-04T15:31:39;6.20;40.20
37032;DHT22;22940;52.266;10.536;2023-03-04T15:34:10;6.30;42.90
37032;DHT22;22940;52.266;10.536;2023-03-04T15:36:36;6.30;43.70
37032;DHT22;22940;52.266;10.536;2023-03-04T15:39:01;6.20;46.30
37032;DHT22;22940;52.266;10.536;2023-03-04T15:41:27;6.10;46.40
37032;DHT22;22940;52.266;10.536;2023-03-04T15:43:52;6.20;49.50
37032;DHT22;22940;52.266;10.536;2023-03-04T15:46:18;6.10;48.20
37032;DHT22;22940;52.266;10.536;2023-03-04T15:48:44;6.10;46.90
37032;DHT22;22940;52.266;10.536;2023-03-04T15:51:12;6.00;50.80
37032;DHT22;22940;52.266;10.536;2023-03-04T15:53:45;5.90;50.10
37032;DHT22;22940;52.266;10.536;2023-03-04T15:56:33;5.90;56.50
37032;DHT22;22940;52.266;10.536;2023-03-04T15:59:13;5.80;56.90
37032;DHT22;22940;52.266;10.536;2023-03-04T16:01:40;5.80;56.00
37032;DHT22;22940;52.266;10.536;2023-03-04T16:04:08;5.60;65.70
37032;DHT22;22940;52.266;10.536;2023-03-04T16:06:35;5.70;62.00
37032;DHT22;22940;52.266;10.536;2023-03-04T16:09:01;5.80;62.70
37032;DHT22;22940;52.266;10.536;2023-03-04T16:11:28;5.80;61.00
37032;DHT22;22940;52.266;10.536;2023-03-04T16:13:54;5.90;61.00
37032;DHT22;22940;52.266;10.536;2023-03-04T16:16:20;6.00;58.80
37032;DHT22;22940;52.266;10.536;2023-03-04T16:18:45;6.00;55.90
37032;DHT22;22940;52.266;10.536;2023-03-04T16:21:12;5.90;52.10
37032;DHT22;22940;52.266;10.536;2023-03-04T16:23:39;5.90;38.10
37032;DHT22;22940;52.266;10.536;2023-03-04T16:26:16;5.90;38.40
37032;DHT22;22940;52.266;10.536;2023-03-04T16:28:41;6.00;30.70
37032;DHT22;22940;52.266;10.536;2023-03-04T16:31:08;6.00;29.80
37032;DHT22;22940;52.266;10.536;2023-03-04T16:33:35;6.00;20.40
37032;DHT22;22940;52.266;10.536;2023-03-04T16:36:00;6.00;18.10
37032;DHT22;22940;52.266;10.536;2023-03-04T16:38:29;6.00;15.80
37032;DHT22;22940;52.266;10.536;2023-03-04T16:40:55;6.00;11.10
37032;DHT22;22940;52.266;10.536;2023-03-04T18:01:20;5.40;1.00
37032;DHT22;22940;52.266;10.536;2023-03-04T18:03:46;5.30;1.00
37032;DHT22;22940;52.266;10.536;2023-03-04T18:06:11;5.30;1.00
37032;DHT22;22940;52.266;10.536;2023-03-04T18:08:37;5.20;1.00
37032;DHT22;22940;52.266;10.536;2023-03-04T18:11:03;5.20;1.00
37032;DHT22;22940;52.266;10.536;2023-03-04T18:13:28;5.10;1.00
37032;DHT22;22940;52.266;10.536;2023-03-04T18:15:54;5.10;1.00
37032;DHT22;22940;52.266;10.536;2023-03-04T18:18:20;5.10;1.00
37032;DHT22;22940;52.266;10.536;2023-03-04T18:20:46;5.10;1.00
37032;DHT22;22940;52.266;10.536;2023-03-04T18:23:11;5.00;1.00
37032;DHT22;22940;52.266;10.536;2023-03-04T18:25:37;5.00;1.00
37032;DHT22;22940;52.266;10.536;2023-03-04T18:28:03;5.00;1.00
37032;DHT22;22940;52.266;10.536;2023-03-04T18:30:29;5.10;1.00
37032;DHT22;22940;52.266;10.536;2023-03-04T18:32:55;5.10;1.00
37032;DHT22;22940;52.266;10.536;2023-03-04T18:35:21;5.20;1.00
37032;DHT22;22940;52.266;10.536;2023-03-04T18:37:47;5.20;1.00
37032;DHT22;22940;52.266;10.536;2023-03-04T18:40:14;5.10;1.00
37032;DHT22;22940;52.266;10.536;2023-03-04T18:42:40;5.10;1.00
37032;DHT22;22940;52.266;10.536;2023-03-04T18:45:09;5.10;1.00
37032;DHT22;22940;52.266;10.536;2023-03-04T18:47:35;5.10;1.00
37032;DHT22;22940;52.266;10.536;2023-03-04T18:50:01;5.10;1.00
37032;DHT22;22940;52.266;10.536;2023-03-04T18:52:27;5.20;1.00
37032;DHT22;22940;52.266;10.536;2023-03-04T18:54:52;5.20;1.00
37032;DHT22;22940;52.266;10.536;2023-03-04T18:57:18;5.10;1.00
37032;DHT22;22940;52.266;10.536;2023-03-04T18:59:48;5.20;1.00
37032;DHT22;22940;52.266;10.536;2023-03-04T19:02:19;5.10;1.00
37032;DHT22;22940;52.266;10.536;2023-03-04T19:04:46;5.30;1.00
37032;DHT22;22940;52.266;10.536;2023-03-04T19:07:12;5.30;1.00
37032;DHT22;22940;52.266;10.536;2023-03-04T19:09:38;5.20;1.00
37032;DHT22;22940;52.266;10.536;2023-03-04T19:12:03;5.20;1.00
37032;DHT22;22940;52.266;10.536;2023-03-04T19:14:30;5.20;1.00
37032;DHT22;22940;52.266;10.536;2023-03-04T19:16:56;5.20;1.00
37032;DHT22;22940;52.266;10.536;2023-03-04T19:19:21;5.20;1.00
37032;DHT22;22940;52.266;10.536;2023-03-04T19:21:47;5.10;1.00
37032;DHT22;22940;52.266;10.536;2023-03-04T19:24:12;5.10;1.00
37032;DHT22;22940;52.266;10.536;2023-03-04T19:26:38;5.10;1.00
37032;DHT22;22940;52.266;10.536;2023-03-04T19:29:04;5.10;1.00
37032;DHT22;22940;52.266;10.536;2023-03-04T19:31:31;5.00;1.00
37032;DHT22;22940;52.266;10.536;2023-03-04T19:33:57;4.90;1.00
37032;DHT22;22940;52.266;10.536;2023-03-04T19:36:22;4.90;1.00
37032;DHT22;22940;52.266;10.536;2023-03-04T19:38:49;4.90;1.00
37032;DHT22;22940;52.266;10.536;2023-03-04T19:41:15;5.00;1.00
37032;DHT22;22940;52.266;10.536;2023-03-04T19:43:41;5.00;1.00
37032;DHT22;22940;52.266;10.536;2023-03-04T19:46:07;5.00;1.00
37032;DHT22;22940;52.266;10.536;2023-03-04T19:48:33;5.00;1.00
37032;DHT22;22940;52.266;10.536;2023-03-04T19:50:59;5.10;1.00
37032;DHT22;22940;52.266;10.536;2023-03-04T19:53:25;5.20;1.00
37032;DHT22;22940;52.266;10.536;2023-03-04T19:55:50;5.10;1.00
37032;DHT22;22940;52.266;10.536;2023-03-04T19:58:18;5.10;1.00
37032;DHT22;22940;52.266;10.536;2023-03-04T20:00:44;5.00;1.00
37032;DHT22;22940;52.266;10.536;2023-03-04T20:03:10;4.90;1.00
37032;DHT22;22940;52.266;10.536;2023-03-04T20:05:36;5.00;1.00
37032;DHT22;22940;52.266;10.536;2023-03-04T20:08:02;5.00;1.00
37032;DHT22;22940;52.266;10.536;2023-03-04T20:10:31;4.90;1.00
37032;DHT22;22940;52.266;10.536;2023-03-04T20:12:57;4.90;1.00
37032;DHT22;22940;52.266;10.536;2023-03-04T20:15:22;4.80;1.00
37032;DHT22;22940;52.266;10.536;2023-03-04T20:17:48;4.90;1.00
37032;DHT22;22940;52.266;10.536;2023-03-04T20:20:13;4.90;1.00
37032;DHT22;22940;52.266;10.536;2023-03-04T20:22:40;4.80;1.00
37032;DHT22;22940;52.266;10.536;2023-03-04T20:25:05;4.80;1.00
37032;DHT22;22940;52.266;10.536;2023-03-04T20:27:31;4.80;1.00
37032;DHT22;22940;52.266;10.536;2023-03-04T20:29:56;4.80;1.00
37032;DHT22;22940;52.266;10.536;2023-03-04T20:32:22;4.80;1.00
37032;DHT22;22940;52.266;10.536;2023-03-04T20:34:47;4.80;1.00
37032;DHT22;22940;52.266;10.536;2023-03-04T20:37:18;4.80;1.00
37032;DHT22;22940;52.266;10.536;2023-03-04T20:39:44;4.80;1.00
37032;DHT22;22940;52.266;10.536;2023-03-04T20:42:10;4.70;1.00
37032;DHT22;22940;52.266;10.536;2023-03-04T20:44:36;4.60;1.00
37032;DHT22;22940;52.266;10.536;2023-03-04T20:47:02;4.60;1.00
37032;DHT22;22940;52.266;10.536;2023-03-04T20:49:27;4.70;1.00
37032;DHT22;22940;52.266;10.536;2023-03-04T20:51:54;4.60;1.00
37032;DHT22;22940;52.266;10.536;2023-03-04T20:54:20;4.60;1.00
37032;DHT22;22940;52.266;10.536;2023-03-04T20:56:46;4.50;1.00
37032;DHT22;22940;52.266;10.536;2023-03-04T20:59:11;4.50;1.00
37032;DHT22;22940;52.266;10.536;2023-03-04T21:01:38;4.50;1.00
37032;DHT22;22940;52.266;10.536;2023-03-04T21:04:04;4.50;1.00
37032;DHT22;22940;52.266;10.536;2023-03-04T21:06:30;4.50;1.00
37032;DHT22;22940;52.266;10.536;2023-03-04T21:08:59;4.50;1.00
37032;DHT22;22940;52.266;10.536;2023-03-04T21:11:24;4.40;1.00
37032;DHT22;22940;52.266;10.536;2023-03-04T21:13:50;4.50;1.00
37032;DHT22;22940;52.266;10.536;2023-03-04T21:16:25;4.50;1.00
37032;DHT22;22940;52.266;10.536;2023-03-04T21:18:50;4.60;1.00
37032;DHT22;22940;52.266;10.536;2023-03-04T21:21:26;4.50;1.00
37032;DHT22;22940;52.266;10.536;2023-03-04T21:23:54;4.50;1.00
37032;DHT22;22940;52.266;10.536;2023-03-04T21:26:20;4.60;1.00
37032;DHT22;22940;52.266;10.536;2023-03-04T21:28:49;4.60;1.00
37032;DHT22;22940;52.266;10.536;2023-03-04T21:31:16;4.50;1.00
37032;DHT22;22940;52.266;10.536;2023-03-04T21:33:42;4.60;1.00
37032;DHT22;22940;52.266;10.536;2023-03-04T21:36:08;4.60;1.00
37032;DHT22;22940;52.266;10.536;2023-03-04T21:38:34;4.50;1.00
37032;DHT22;22940;52.266;10.536;2023-03-04T21:40:59;4.60;1.00
37032;DHT22;22940;52.266;10.536;2023-03-04T21:43:25;4.50;1.00
37032;DHT22;22940;52.266;10.536;2023-03-04T21:45:51;4.60;1.00
37032;DHT22;22940;52.266;10.536;2023-03-04T21:48:17;4.70;1.00
37032;DHT22;22940;52.266;10.536;2023-03-04T21:50:42;4.70;1.00
37032;DHT22;22940;52.266;10.536;2023-03-04T21:53:08;4.60;1.00
37032;DHT22;22940;52.266;10.536;2023-03-04T21:55:33;4.60;1.00
37032;DHT22;22940;52.266;10.536;2023-03-04T21:57:59;4.60;1.00
37032;DHT22;22940;52.266;10.536;2023-03-04T22:00:24;4.50;1.00
37032;DHT22;22940;52.266;10.536;2023-03-04T22:02:50;4.50;1.00
37032;DHT22;22940;52.266;10.536;2023-03-04T22:05:15;4.50;1.00
37032;DHT22;22940;52.266;10.536;2023-03-04T22:07:42;4.40;1.00
37032;DHT22;22940;52.266;10.536;2023-03-04T22:10:08;4.30;1.00
37032;DHT22;22940;52.266;10.536;2023-03-04T22:12:33;4.30;1.00
37032;DHT22;22940;52.266;10.536;2023-03-04T22:14:59;4.40;1.00
37032;DHT22;22940;52.266;10.536;2023-03-04T22:17:24;4.40;1.00
37032;DHT22;22940;52.266;10.536;2023-03-04T22:19:50;4.40;1.00
37032;DHT22;22940;52.266;10.536;2023-03-04T22:22:15;4.50;1.00
37032;DHT22;22940;52.266;10.536;2023-03-04T22:24:43;4.50;1.00
37032;DHT22;22940;52.266;10.536;2023-03-04T22:27:08;4.50;1.00
37032;DHT22;22940;52.266;10.536;2023-03-04T22:29:34;4.60;1.00
37032;DHT22;22940;52.266;10.536;2023-03-04T22:31:59;4.60;1.00
37032;DHT22;22940;52.266;10.536;2023-03-04T22:34:25;4.50;1.00
37032;DHT22;22940;52.266;10.536;2023-03-04T22:36:50;4.60;1.00
37032;DHT22;22940;52.266;10.536;2023-03-04T22:39:16;4.60;1.00
37032;DHT22;22940;52.266;10.536;2023-03-04T22:41:47;4.50;1.00
37032;DHT22;22940;52.266;10.536;2023-03-04T22:44:12;4.50;1.00
37032;DHT22;22940;52.266;10.536;2023-03-04T22:46:38;4.40;1.00
37032;DHT22;22940;52.266;10.536;2023-03-04T22:49:05;4.30;1.00
37032;DHT22;22940;52.266;10.536;2023-03-04T22:51:31;4.30;1.00
37032;DHT22;22940;52.266;10.536;2023-03-04T22:53:56;4.30;1.00
37032;DHT22;22940;52.266;10.536;2023-03-04T22:56:22;4.30;1.10
37032;DHT22;22940;52.266;10.536;2023-03-04T22:58:48;4.30;5.30
37032;DHT22;22940;52.266;10.536;2023-03-04T23:01:14;4.30;8.50
37032;DHT22;22940;52.266;10.536;2023-03-04T23:03:40;4.40;10.30
37032;DHT22;22940;52.266;10.536;2023-03-04T23:06:08;4.40;11.90
37032;DHT22;22940;52.266;10.536;2023-03-04T23:08:34;4.40;12.50
37032;DHT22;22940;52.266;10.536;2023-03-04T23:11:00;4.50;13.50
37032;DHT22;22940;52.266;10.536;2023-03-04T23:13:26;4.50;14.60
37032;DHT22;22940;52.266;10.536;2023-03-04T23:15:51;4.40;16.20
37032;DHT22;22940;52.266;10.536;2023-03-04T23:18:17;4.40;18.20
37032;DHT22;22940;52.266;10.536;2023-03-04T23:20:42;4.40;19.50
37032;DHT22;22940;52.266;10.536;2023-03-04T23:23:08;4.40;21.30
37032;DHT22;22940;52.266;10.536;2023-03-04T23:25:34;4.40;22.50
37032;DHT22;22940;52.266;10.536;2023-03-04T23:28:00;4.30;25.30
37032;DHT22;22940;52.266;10.536;2023-03-04T23:30:25;4.10;26.70
37032;DHT22;22940;52.266;10.536;2023-03-04T23:32:51;4.10;35.20
37032;DHT22;22940;52.266;10.536;2023-03-04T23:35:17;4.10;38.60
37032;DHT22;22940;52.266;10.536;2023-03-04T23:37:42;4.20;40.60
37032;DHT22;22940;52.266;10.536;2023-03-04T23:40:08;4.30;41.40
37032;DHT22;22940;52.266;10.536;2023-03-04T23:42:34;4.20;39.50
37032;DHT22;22940;52.266;10.536;2023-03-04T23:45:00;4.10;41.70
37032;DHT22;22940;52.266;10.536;2023-03-04T23:47:25;4.00;50.40
37032;DHT22;22940;52.266;10.536;2023-03-04T23:49:51;4.00;59.20
37032;DHT22;22940;52.266;10.536;2023-03-04T23:52:17;4.00;57.90
37032;DHT22;22940;52.266;10.536;2023-03-04T23:54:42;4.00;60.90
37032;DHT22;22940;52.266;10.536;2023-03-04T23:57:08;4.00;61.80
37032;DHT22;22940;52.266;10.536;2023-03-04T23:59:33;4.00;61.20
